Portada
METAR-TAF:

METAR-TAF

Aeroports :

Aeroport Internacional d'Al-Ain

Al-Ain, Emirats Àrabs Units

latitud: 24-16N, longitud: 055-36E, altitud: 265 m

Observació

L'informe es va fer fa 56 minuts, a les 19:00 UTC
Vent 5 kt del Nord
Temperatura 29°C
Humitat 62%
Pressió 1007 hPa
Visibilitat 10 km o més
sense núvols per sota de 1500 mi sense presència de cumulonimbus.

METAR: OMAL 011900Z 35005KT CAVOK 29/21 Q1007 NOSIG

Hora: 23:56 (19:56 UTC)

Pronòstic

L'informe es va fer fa 2 hores i 56 minuts, a les 17:00 UTC
Pronòstic vàlid del 01 a les 18 UTC al 03 a les 00 UTC
Vent 7 kt del Nord/Nord-Est
Visibilitat: 8000 m
Evolucionant progressivament
l' 02 a les 01 UTC al 02 a les 03 UTC
Vent 8 kt del Sud
Evolucionant progressivament
l' 02 a les 09 UTC al 02 a les 11 UTC
Vent 12 kt del Nord/Nord-Oest
Evolucionant progressivament
l' 02 a les 17 UTC al 02 a les 19 UTC
Vent 6 kt del Est/Nord-Est

TAF: OMAL 011700Z 0118/0300 02007KT 8000 NSC BECMG 0201/0203 17008KT BECMG 0209/0211 33012KT BECMG 0217/0219 07006KT

Observacions i pronòstics meteorològics de més de 4000 aeroports (METAR i TAF).

Les estacions disponibles són els punts grocs i vermells al mapa.

Posi el ratolí al punt desitjat per veure el nom de l'estació.

Feu clic per veure les observacions i els pronòstics meteorològics.

Per canviar el mapa: feu clic els botons verds amb una creu de color negre per apropar; al botó verd amb un guió per allunyar la imatge; o en les fletxes verdes per a mapes adjacents.


METAR-TAF: